sensor_id;sensor_type;location;lat;lon;timestamp;temperature;humidity
51175;DHT22;37240;50.104;20.010;2023-08-17T00:02:19;26.90;81.60
51175;DHT22;37240;50.104;20.010;2023-08-17T00:07:20;26.90;81.80
51175;DHT22;37240;50.104;20.010;2023-08-17T00:12:20;26.90;82.60
51175;DHT22;37240;50.104;20.010;2023-08-17T00:17:22;26.90;83.20
51175;DHT22;37240;50.104;20.010;2023-08-17T00:22:22;26.80;81.70
51175;DHT22;37240;50.104;20.010;2023-08-17T00:27:23;26.80;82.80
51175;DHT22;37240;50.104;20.010;2023-08-17T00:32:24;26.70;83.60
51175;DHT22;37240;50.104;20.010;2023-08-17T00:37:24;26.80;83.70
51175;DHT22;37240;50.104;20.010;2023-08-17T00:42:25;26.80;84.80
51175;DHT22;37240;50.104;20.010;2023-08-17T00:47:25;26.80;86.50
51175;DHT22;37240;50.104;20.010;2023-08-17T00:52:26;26.80;87.50
51175;DHT22;37240;50.104;20.010;2023-08-17T00:57:27;26.70;87.40
51175;DHT22;37240;50.104;20.010;2023-08-17T01:02:27;26.60;87.50
51175;DHT22;37240;50.104;20.010;2023-08-17T01:07:28;26.60;88.40
51175;DHT22;37240;50.104;20.010;2023-08-17T01:12:36;26.50;87.70
51175;DHT22;37240;50.104;20.010;2023-08-17T01:17:58;26.60;89.60
51175;DHT22;37240;50.104;20.010;2023-08-17T01:23:05;26.40;90.20
51175;DHT22;37240;50.104;20.010;2023-08-17T01:28:06;26.40;91.10
51175;DHT22;37240;50.104;20.010;2023-08-17T01:33:08;26.20;92.30
51175;DHT22;37240;50.104;20.010;2023-08-17T01:38:12;26.20;92.60
51175;DHT22;37240;50.104;20.010;2023-08-17T01:43:16;26.20;92.70
51175;DHT22;37240;50.104;20.010;2023-08-17T01:48:17;26.10;92.80
51175;DHT22;37240;50.104;20.010;2023-08-17T01:53:18;25.90;93.10
51175;DHT22;37240;50.104;20.010;2023-08-17T01:58:18;25.90;93.70
51175;DHT22;37240;50.104;20.010;2023-08-17T02:03:19;25.80;94.00
51175;DHT22;37240;50.104;20.010;2023-08-17T02:08:19;25.80;94.30
51175;DHT22;37240;50.104;20.010;2023-08-17T02:13:20;25.80;94.60
51175;DHT22;37240;50.104;20.010;2023-08-17T02:18:20;25.70;95.00
51175;DHT22;37240;50.104;20.010;2023-08-17T02:23:21;25.50;95.30
51175;DHT22;37240;50.104;20.010;2023-08-17T02:28:22;25.60;95.60
51175;DHT22;37240;50.104;20.010;2023-08-17T02:33:22;25.50;95.70
51175;DHT22;37240;50.104;20.010;2023-08-17T02:38:23;25.50;96.00
51175;DHT22;37240;50.104;20.010;2023-08-17T02:43:24;25.30;96.70
51175;DHT22;37240;50.104;20.010;2023-08-17T02:48:24;25.50;96.50
51175;DHT22;37240;50.104;20.010;2023-08-17T02:53:25;25.40;96.60
51175;DHT22;37240;50.104;20.010;2023-08-17T02:58:25;25.40;97.00
51175;DHT22;37240;50.104;20.010;2023-08-17T03:03:26;25.20;96.70
51175;DHT22;37240;50.104;20.010;2023-08-17T03:08:26;25.20;96.80
51175;DHT22;37240;50.104;20.010;2023-08-17T03:13:27;25.30;96.80
51175;DHT22;37240;50.104;20.010;2023-08-17T03:18:27;25.20;96.70
51175;DHT22;37240;50.104;20.010;2023-08-17T03:23:28;25.20;96.80
51175;DHT22;37240;50.104;20.010;2023-08-17T03:28:28;25.20;97.10
51175;DHT22;37240;50.104;20.010;2023-08-17T03:33:29;25.20;97.00
51175;DHT22;37240;50.104;20.010;2023-08-17T03:38:30;25.30;97.00
51175;DHT22;37240;50.104;20.010;2023-08-17T03:43:30;25.20;96.90
51175;DHT22;37240;50.104;20.010;2023-08-17T03:48:31;25.20;97.10
51175;DHT22;37240;50.104;20.010;2023-08-17T03:53:31;25.20;97.00
51175;DHT22;37240;50.104;20.010;2023-08-17T03:58:32;25.20;97.20
51175;DHT22;37240;50.104;20.010;2023-08-17T04:03:33;25.30;97.20
51175;DHT22;37240;50.104;20.010;2023-08-17T04:08:33;25.30;96.90
51175;DHT22;37240;50.104;20.010;2023-08-17T04:13:34;25.30;96.90
51175;DHT22;37240;50.104;20.010;2023-08-17T04:18:34;25.30;97.20
51175;DHT22;37240;50.104;20.010;2023-08-17T04:23:35;25.30;97.20
51175;DHT22;37240;50.104;20.010;2023-08-17T04:28:36;25.30;97.40
51175;DHT22;37240;50.104;20.010;2023-08-17T04:33:36;25.30;97.50
51175;DHT22;37240;50.104;20.010;2023-08-17T04:38:37;25.20;97.40
51175;DHT22;37240;50.104;20.010;2023-08-17T04:43:37;25.20;97.20
51175;DHT22;37240;50.104;20.010;2023-08-17T04:48:38;25.30;97.40
51175;DHT22;37240;50.104;20.010;2023-08-17T04:53:38;25.30;97.90
51175;DHT22;37240;50.104;20.010;2023-08-17T04:58:39;25.10;97.80
51175;DHT22;37240;50.104;20.010;2023-08-17T05:03:39;24.90;98.40
51175;DHT22;37240;50.104;20.010;2023-08-17T05:08:40;25.00;98.60
51175;DHT22;37240;50.104;20.010;2023-08-17T05:13:40;24.90;98.60
51175;DHT22;37240;50.104;20.010;2023-08-17T05:18:41;25.10;98.30
51175;DHT22;37240;50.104;20.010;2023-08-17T05:23:41;25.10;98.10
51175;DHT22;37240;50.104;20.010;2023-08-17T05:28:42;25.20;98.10
51175;DHT22;37240;50.104;20.010;2023-08-17T05:33:42;25.20;98.00
51175;DHT22;37240;50.104;20.010;2023-08-17T05:38:43;25.20;98.10
51175;DHT22;37240;50.104;20.010;2023-08-17T05:43:44;25.20;98.20
51175;DHT22;37240;50.104;20.010;2023-08-17T05:48:44;25.20;98.50
51175;DHT22;37240;50.104;20.010;2023-08-17T05:53:45;25.20;98.10
51175;DHT22;37240;50.104;20.010;2023-08-17T05:58:45;25.10;98.10
51175;DHT22;37240;50.104;20.010;2023-08-17T06:03:46;25.20;98.10
51175;DHT22;37240;50.104;20.010;2023-08-17T06:08:46;25.30;97.60
51175;DHT22;37240;50.104;20.010;2023-08-17T06:13:47;25.20;97.40
51175;DHT22;37240;50.104;20.010;2023-08-17T06:18:47;25.20;96.50
51175;DHT22;37240;50.104;20.010;2023-08-17T06:23:48;25.40;96.90
51175;DHT22;37240;50.104;20.010;2023-08-17T06:28:49;25.70;96.40
51175;DHT22;37240;50.104;20.010;2023-08-17T06:33:49;26.30;96.10
51175;DHT22;37240;50.104;20.010;2023-08-17T06:38:50;28.70;91.20
51175;DHT22;37240;50.104;20.010;2023-08-17T06:43:51;31.30;81.30
51175;DHT22;37240;50.104;20.010;2023-08-17T06:48:51;32.70;73.40
51175;DHT22;37240;50.104;20.010;2023-08-17T06:53:52;33.20;68.50
51175;DHT22;37240;50.104;20.010;2023-08-17T06:58:52;33.10;67.60
51175;DHT22;37240;50.104;20.010;2023-08-17T07:03:53;33.00;68.70
51175;DHT22;37240;50.104;20.010;2023-08-17T07:08:54;33.60;66.80
51175;DHT22;37240;50.104;20.010;2023-08-17T07:13:54;33.90;64.30
51175;DHT22;37240;50.104;20.010;2023-08-17T07:18:56;33.90;63.40
51175;DHT22;37240;50.104;20.010;2023-08-17T07:24:05;34.40;63.50
51175;DHT22;37240;50.104;20.010;2023-08-17T07:29:12;35.40;60.50
51175;DHT22;37240;50.104;20.010;2023-08-17T07:34:12;36.20;57.60
51175;DHT22;37240;50.104;20.010;2023-08-17T07:39:13;36.90;55.80
51175;DHT22;37240;50.104;20.010;2023-08-17T07:44:13;37.00;55.60
51175;DHT22;37240;50.104;20.010;2023-08-17T07:49:14;37.40;54.30
51175;DHT22;37240;50.104;20.010;2023-08-17T07:54:14;37.50;53.40
51175;DHT22;37240;50.104;20.010;2023-08-17T07:59:15;37.90;51.60
51175;DHT22;37240;50.104;20.010;2023-08-17T08:04:16;38.50;51.40
51175;DHT22;37240;50.104;20.010;2023-08-17T08:09:16;38.90;50.00
51175;DHT22;37240;50.104;20.010;2023-08-17T08:14:17;39.00;49.80
51175;DHT22;37240;50.104;20.010;2023-08-17T08:19:18;38.50;49.50
51175;DHT22;37240;50.104;20.010;2023-08-17T08:24:18;38.00;50.40
51175;DHT22;37240;50.104;20.010;2023-08-17T08:29:19;37.90;51.20
51175;DHT22;37240;50.104;20.010;2023-08-17T08:34:19;38.70;49.70
51175;DHT22;37240;50.104;20.010;2023-08-17T08:39:20;39.40;47.40
51175;DHT22;37240;50.104;20.010;2023-08-17T08:44:21;40.10;44.90
51175;DHT22;37240;50.104;20.010;2023-08-17T08:49:23;40.40;44.40
51175;DHT22;37240;50.104;20.010;2023-08-17T08:54:25;40.70;43.80
51175;DHT22;37240;50.104;20.010;2023-08-17T08:59:27;40.60;43.90
51175;DHT22;37240;50.104;20.010;2023-08-17T09:04:28;40.40;42.50
51175;DHT22;37240;50.104;20.010;2023-08-17T09:09:29;39.80;43.60
51175;DHT22;37240;50.104;20.010;2023-08-17T09:14:30;39.80;44.30
51175;DHT22;37240;50.104;20.010;2023-08-17T09:19:32;39.00;44.80
51175;DHT22;37240;50.104;20.010;2023-08-17T09:24:37;38.80;45.60
51175;DHT22;37240;50.104;20.010;2023-08-17T09:29:37;39.00;45.90
51175;DHT22;37240;50.104;20.010;2023-08-17T09:34:38;38.60;46.70
51175;DHT22;37240;50.104;20.010;2023-08-17T09:39:41;37.50;48.70
51175;DHT22;37240;50.104;20.010;2023-08-17T09:44:42;36.70;49.80
51175;DHT22;37240;50.104;20.010;2023-08-17T09:49:47;36.00;49.60
51175;DHT22;37240;50.104;20.010;2023-08-17T09:54:48;35.80;49.60
51175;DHT22;37240;50.104;20.010;2023-08-17T09:59:49;35.50;49.50
51175;DHT22;37240;50.104;20.010;2023-08-17T10:04:52;35.00;50.90
51175;DHT22;37240;50.104;20.010;2023-08-17T10:10:05;34.60;53.30
51175;DHT22;37240;50.104;20.010;2023-08-17T10:15:09;35.50;51.00
51175;DHT22;37240;50.104;20.010;2023-08-17T10:20:11;37.10;47.40
51175;DHT22;37240;50.104;20.010;2023-08-17T10:25:15;37.60;46.50
51175;DHT22;37240;50.104;20.010;2023-08-17T10:30:16;38.10;45.00
51175;DHT22;37240;50.104;20.010;2023-08-17T10:35:17;37.90;45.50
51175;DHT22;37240;50.104;20.010;2023-08-17T10:40:25;37.70;44.30
51175;DHT22;37240;50.104;20.010;2023-08-17T10:45:30;37.80;42.50
51175;DHT22;37240;50.104;20.010;2023-08-17T10:50:31;37.40;44.20
51175;DHT22;37240;50.104;20.010;2023-08-17T10:55:40;37.00;44.20
51175;DHT22;37240;50.104;20.010;2023-08-17T11:00:41;36.80;45.30
51175;DHT22;37240;50.104;20.010;2023-08-17T11:05:52;36.70;43.40
51175;DHT22;37240;50.104;20.010;2023-08-17T11:11:06;36.70;44.30
51175;DHT22;37240;50.104;20.010;2023-08-17T11:16:08;36.60;45.20
51175;DHT22;37240;50.104;20.010;2023-08-17T11:21:09;35.90;46.40
51175;DHT22;37240;50.104;20.010;2023-08-17T11:26:10;35.90;46.80
51175;DHT22;37240;50.104;20.010;2023-08-17T11:31:12;36.00;46.10
51175;DHT22;37240;50.104;20.010;2023-08-17T11:36:13;36.20;46.40
51175;DHT22;37240;50.104;20.010;2023-08-17T11:41:14;36.30;47.10
51175;DHT22;37240;50.104;20.010;2023-08-17T11:46:15;36.10;46.80
51175;DHT22;37240;50.104;20.010;2023-08-17T11:51:15;35.50;47.20
51175;DHT22;37240;50.104;20.010;2023-08-17T11:56:16;35.20;48.30
51175;DHT22;37240;50.104;20.010;2023-08-17T12:01:17;35.30;48.50
51175;DHT22;37240;50.104;20.010;2023-08-17T12:06:17;35.50;48.50
51175;DHT22;37240;50.104;20.010;2023-08-17T12:11:18;35.80;48.00
51175;DHT22;37240;50.104;20.010;2023-08-17T12:16:20;36.00;48.10
51175;DHT22;37240;50.104;20.010;2023-08-17T12:21:22;36.30;47.90
51175;DHT22;37240;50.104;20.010;2023-08-17T12:26:22;36.20;45.80
51175;DHT22;37240;50.104;20.010;2023-08-17T12:31:23;36.00;46.20
51175;DHT22;37240;50.104;20.010;2023-08-17T12:36:24;35.70;45.90
51175;DHT22;37240;50.104;20.010;2023-08-17T12:41:24;35.30;47.90
51175;DHT22;37240;50.104;20.010;2023-08-17T12:46:25;35.00;48.00
51175;DHT22;37240;50.104;20.010;2023-08-17T12:51:26;34.30;48.30
51175;DHT22;37240;50.104;20.010;2023-08-17T12:56:26;33.20;50.20
51175;DHT22;37240;50.104;20.010;2023-08-17T13:01:27;32.60;52.20
51175;DHT22;37240;50.104;20.010;2023-08-17T13:06:27;32.20;53.50
51175;DHT22;37240;50.104;20.010;2023-08-17T13:11:28;31.90;54.20
51175;DHT22;37240;50.104;20.010;2023-08-17T13:16:29;31.30;53.70
51175;DHT22;37240;50.104;20.010;2023-08-17T13:21:29;31.00;54.20
51175;DHT22;37240;50.104;20.010;2023-08-17T13:26:30;30.80;55.50
51175;DHT22;37240;50.104;20.010;2023-08-17T13:31:30;30.60;55.90
51175;DHT22;37240;50.104;20.010;2023-08-17T13:36:31;30.50;56.00
51175;DHT22;37240;50.104;20.010;2023-08-17T13:41:31;30.50;56.30
51175;DHT22;37240;50.104;20.010;2023-08-17T13:46:32;30.80;56.60
51175;DHT22;37240;50.104;20.010;2023-08-17T13:51:33;31.60;55.30
51175;DHT22;37240;50.104;20.010;2023-08-17T13:56:33;31.90;54.50
51175;DHT22;37240;50.104;20.010;2023-08-17T14:01:34;32.10;53.70
51175;DHT22;37240;50.104;20.010;2023-08-17T14:06:34;32.10;53.10
51175;DHT22;37240;50.104;20.010;2023-08-17T14:11:35;32.10;53.10
51175;DHT22;37240;50.104;20.010;2023-08-17T14:16:36;32.20;52.70
51175;DHT22;37240;50.104;20.010;2023-08-17T14:21:36;32.50;52.20
51175;DHT22;37240;50.104;20.010;2023-08-17T14:26:37;32.70;52.80
51175;DHT22;37240;50.104;20.010;2023-08-17T14:31:38;33.00;52.40
51175;DHT22;37240;50.104;20.010;2023-08-17T14:36:38;33.10;52.30
51175;DHT22;37240;50.104;20.010;2023-08-17T14:41:39;33.20;52.20
51175;DHT22;37240;50.104;20.010;2023-08-17T14:46:39;33.40;51.80
51175;DHT22;37240;50.104;20.010;2023-08-17T14:51:40;33.40;50.60
51175;DHT22;37240;50.104;20.010;2023-08-17T14:56:41;33.40;51.30
51175;DHT22;37240;50.104;20.010;2023-08-17T15:01:41;33.40;50.40
51175;DHT22;37240;50.104;20.010;2023-08-17T15:06:42;33.30;50.70
51175;DHT22;37240;50.104;20.010;2023-08-17T15:11:42;33.30;51.20
51175;DHT22;37240;50.104;20.010;2023-08-17T15:16:43;32.80;51.60
51175;DHT22;37240;50.104;20.010;2023-08-17T15:21:43;32.40;52.80
51175;DHT22;37240;50.104;20.010;2023-08-17T15:26:44;31.90;53.90
51175;DHT22;37240;50.104;20.010;2023-08-17T15:31:45;31.50;55.00
51175;DHT22;37240;50.104;20.010;2023-08-17T15:36:45;31.20;56.00
51175;DHT22;37240;50.104;20.010;2023-08-17T15:41:46;30.90;56.40
51175;DHT22;37240;50.104;20.010;2023-08-17T15:46:46;30.80;56.70
51175;DHT22;37240;50.104;20.010;2023-08-17T15:51:47;30.60;57.30
51175;DHT22;37240;50.104;20.010;2023-08-17T15:56:47;30.40;57.70
51175;DHT22;37240;50.104;20.010;2023-08-17T16:01:48;30.30;58.00
51175;DHT22;37240;50.104;20.010;2023-08-17T16:06:49;30.10;58.80
51175;DHT22;37240;50.104;20.010;2023-08-17T16:11:49;30.00;58.30
51175;DHT22;37240;50.104;20.010;2023-08-17T16:16:50;29.90;59.10
51175;DHT22;37240;50.104;20.010;2023-08-17T16:21:50;29.60;68.20
51175;DHT22;37240;50.104;20.010;2023-08-17T16:26:51;29.10;66.70
51175;DHT22;37240;50.104;20.010;2023-08-17T16:31:59;28.80;68.00
51175;DHT22;37240;50.104;20.010;2023-08-17T16:37:00;28.50;68.60
51175;DHT22;37240;50.104;20.010;2023-08-17T16:42:01;28.30;74.70
51175;DHT22;37240;50.104;20.010;2023-08-17T16:47:01;28.10;74.70
51175;DHT22;37240;50.104;20.010;2023-08-17T16:52:02;28.00;77.00
51175;DHT22;37240;50.104;20.010;2023-08-17T16:57:02;28.00;78.00
51175;DHT22;37240;50.104;20.010;2023-08-17T17:02:03;27.90;74.60
51175;DHT22;37240;50.104;20.010;2023-08-17T17:07:03;27.80;77.00
51175;DHT22;37240;50.104;20.010;2023-08-17T17:12:04;27.70;84.90
51175;DHT22;37240;50.104;20.010;2023-08-17T17:17:05;27.50;86.10
51175;DHT22;37240;50.104;20.010;2023-08-17T17:22:05;27.40;87.00
51175;DHT22;37240;50.104;20.010;2023-08-17T17:27:07;27.50;88.60
51175;DHT22;37240;50.104;20.010;2023-08-17T17:32:08;27.30;90.20
51175;DHT22;37240;50.104;20.010;2023-08-17T17:37:08;27.20;90.70
51175;DHT22;37240;50.104;20.010;2023-08-17T17:42:09;27.20;87.60
51175;DHT22;37240;50.104;20.010;2023-08-17T17:47:09;27.10;90.30
51175;DHT22;37240;50.104;20.010;2023-08-17T17:52:10;27.00;91.30
51175;DHT22;37240;50.104;20.010;2023-08-17T17:57:10;26.90;91.40
51175;DHT22;37240;50.104;20.010;2023-08-17T18:02:11;26.80;92.20
51175;DHT22;37240;50.104;20.010;2023-08-17T18:07:12;26.70;92.00
51175;DHT22;37240;50.104;20.010;2023-08-17T18:12:13;26.60;92.80
51175;DHT22;37240;50.104;20.010;2023-08-17T18:17:13;26.60;92.90
51175;DHT22;37240;50.104;20.010;2023-08-17T18:22:14;26.50;92.00
51175;DHT22;37240;50.104;20.010;2023-08-17T18:27:14;26.50;90.60
51175;DHT22;37240;50.104;20.010;2023-08-17T18:32:15;26.40;90.90
51175;DHT22;37240;50.104;20.010;2023-08-17T18:37:15;26.20;91.70
51175;DHT22;37240;50.104;20.010;2023-08-17T18:42:16;26.10;91.80
51175;DHT22;37240;50.104;20.010;2023-08-17T18:47:16;26.00;92.40
51175;DHT22;37240;50.104;20.010;2023-08-17T18:52:17;26.00;91.90
51175;DHT22;37240;50.104;20.010;2023-08-17T18:57:18;25.80;91.80
51175;DHT22;37240;50.104;20.010;2023-08-17T19:02:18;25.70;92.00
51175;DHT22;37240;50.104;20.010;2023-08-17T19:07:19;25.60;91.90
51175;DHT22;37240;50.104;20.010;2023-08-17T19:12:19;25.60;92.20
51175;DHT22;37240;50.104;20.010;2023-08-17T19:17:20;25.50;93.40
51175;DHT22;37240;50.104;20.010;2023-08-17T19:22:20;25.40;93.60
51175;DHT22;37240;50.104;20.010;2023-08-17T19:27:21;25.60;93.90
51175;DHT22;37240;50.104;20.010;2023-08-17T19:32:22;25.60;93.60
51175;DHT22;37240;50.104;20.010;2023-08-17T19:37:22;25.60;94.50
51175;DHT22;37240;50.104;20.010;2023-08-17T19:42:23;25.50;93.80
51175;DHT22;37240;50.104;20.010;2023-08-17T19:47:23;25.50;93.50
51175;DHT22;37240;50.104;20.010;2023-08-17T19:52:24;25.50;93.90
51175;DHT22;37240;50.104;20.010;2023-08-17T19:57:24;25.50;94.70
51175;DHT22;37240;50.104;20.010;2023-08-17T20:02:25;25.50;93.90
51175;DHT22;37240;50.104;20.010;2023-08-17T20:07:26;25.60;95.00
51175;DHT22;37240;50.104;20.010;2023-08-17T20:12:26;25.60;95.10
51175;DHT22;37240;50.104;20.010;2023-08-17T20:17:45;25.60;95.10
51175;DHT22;37240;50.104;20.010;2023-08-17T20:22:45;25.60;95.60
51175;DHT22;37240;50.104;20.010;2023-08-17T20:27:46;25.50;95.50
51175;DHT22;37240;50.104;20.010;2023-08-17T20:32:46;25.50;94.90
51175;DHT22;37240;50.104;20.010;2023-08-17T20:37:47;25.50;95.70
51175;DHT22;37240;50.104;20.010;2023-08-17T20:42:47;25.50;96.10
51175;DHT22;37240;50.104;20.010;2023-08-17T20:47:48;25.40;96.40
51175;DHT22;37240;50.104;20.010;2023-08-17T20:52:48;25.40;96.40
51175;DHT22;37240;50.104;20.010;2023-08-17T20:57:49;25.40;96.60
51175;DHT22;37240;50.104;20.010;2023-08-17T21:02:50;25.30;97.00
51175;DHT22;37240;50.104;20.010;2023-08-17T21:07:50;25.30;96.90
51175;DHT22;37240;50.104;20.010;2023-08-17T21:12:51;25.20;97.20
51175;DHT22;37240;50.104;20.010;2023-08-17T21:17:51;25.20;97.60
51175;DHT22;37240;50.104;20.010;2023-08-17T21:22:52;25.10;97.60
51175;DHT22;37240;50.104;20.010;2023-08-17T21:27:52;25.10;97.90
51175;DHT22;37240;50.104;20.010;2023-08-17T21:32:53;25.10;97.80
51175;DHT22;37240;50.104;20.010;2023-08-17T21:37:53;25.10;98.20
51175;DHT22;37240;50.104;20.010;2023-08-17T21:42:54;25.10;97.80
51175;DHT22;37240;50.104;20.010;2023-08-17T21:47:54;25.10;98.10
51175;DHT22;37240;50.104;20.010;2023-08-17T21:52:55;25.00;98.20
51175;DHT22;37240;50.104;20.010;2023-08-17T21:57:56;25.00;97.90
51175;DHT22;37240;50.104;20.010;2023-08-17T22:02:56;24.90;98.30
51175;DHT22;37240;50.104;20.010;2023-08-17T22:07:57;24.90;97.90
51175;DHT22;37240;50.104;20.010;2023-08-17T22:12:58;25.00;97.00
51175;DHT22;37240;50.104;20.010;2023-08-17T22:17:58;24.90;98.30
51175;DHT22;37240;50.104;20.010;2023-08-17T22:22:59;24.90;98.10
51175;DHT22;37240;50.104;20.010;2023-08-17T22:27:59;24.90;98.40
51175;DHT22;37240;50.104;20.010;2023-08-17T22:33:00;24.90;98.60
51175;DHT22;37240;50.104;20.010;2023-08-17T22:38:00;24.90;98.60
51175;DHT22;37240;50.104;20.010;2023-08-17T22:43:01;24.80;97.70
51175;DHT22;37240;50.104;20.010;2023-08-17T22:48:01;24.90;98.50
51175;DHT22;37240;50.104;20.010;2023-08-17T22:53:02;24.80;98.70
51175;DHT22;37240;50.104;20.010;2023-08-17T22:58:03;24.80;99.00
51175;DHT22;37240;50.104;20.010;2023-08-17T23:03:03;24.80;98.90
51175;DHT22;37240;50.104;20.010;2023-08-17T23:08:04;24.80;98.80
51175;DHT22;37240;50.104;20.010;2023-08-17T23:13:05;24.80;99.20
51175;DHT22;37240;50.104;20.010;2023-08-17T23:18:05;24.80;99.50
51175;DHT22;37240;50.104;20.010;2023-08-17T23:23:06;24.70;99.60
51175;DHT22;37240;50.104;20.010;2023-08-17T23:28:06;24.80;99.50
51175;DHT22;37240;50.104;20.010;2023-08-17T23:33:07;24.80;99.70
51175;DHT22;37240;50.104;20.010;2023-08-17T23:38:09;24.80;99.40
51175;DHT22;37240;50.104;20.010;2023-08-17T23:43:09;24.70;99.50
51175;DHT22;37240;50.104;20.010;2023-08-17T23:48:10;24.70;99.50
51175;DHT22;37240;50.104;20.010;2023-08-17T23:53:11;24.70;99.60
51175;DHT22;37240;50.104;20.010;2023-08-17T23:58:11;24.70;98.80
